createdAt,value
2023-01-07T00:02:14.005Z,100359.16
2023-01-07T00:04:42.400Z,100352.13
2023-01-07T00:07:12.132Z,100353.00
2023-01-07T00:09:40.416Z,100351.22
2023-01-07T00:12:08.836Z,100346.06
2023-01-07T00:14:37.192Z,100343.44
2023-01-07T00:17:05.625Z,100340.81
2023-01-07T00:19:34.030Z,100339.97
2023-01-07T00:22:02.411Z,100345.22
2023-01-07T00:24:32.110Z,100340.84
2023-01-07T00:27:00.413Z,100335.63
2023-01-07T00:29:28.709Z,100333.88
2023-01-07T00:31:57.062Z,100338.22
2023-01-07T00:34:26.203Z,100336.50
2023-01-07T00:37:16.338Z,100335.63
2023-01-07T00:39:46.323Z,100336.50
2023-01-07T00:42:32.298Z,100335.69
2023-01-07T00:45:00.686Z,100330.38
2023-01-07T00:47:29.035Z,100327.81
2023-01-07T00:49:57.389Z,100322.59
2023-01-07T00:52:25.767Z,100327.81
2023-01-07T00:54:55.435Z,100320.84
2023-01-07T00:57:23.779Z,100313.88
2023-01-07T00:59:52.271Z,100313.00
2023-01-07T01:02:20.826Z,100315.69
2023-01-07T01:04:49.194Z,100315.69
2023-01-07T01:07:17.518Z,100318.28
2023-01-07T01:09:45.823Z,100306.97
2023-01-07T01:12:15.515Z,100306.97
2023-01-07T01:14:43.919Z,100307.81
2023-01-07T01:17:12.364Z,100305.22
2023-01-07T01:19:40.826Z,100305.22
2023-01-07T01:22:09.465Z,100299.97
2023-01-07T01:24:37.771Z,100298.19
2023-01-07T01:27:07.301Z,100288.59
2023-01-07T01:29:37.055Z,100292.13
2023-01-07T01:32:06.280Z,100288.56
2023-01-07T01:34:35.189Z,100298.19
2023-01-07T01:37:03.644Z,100294.69
2023-01-07T01:39:32.312Z,100295.56
2023-01-07T01:42:00.965Z,100290.31
2023-01-07T01:44:40.532Z,100289.50
2023-01-07T01:47:20.713Z,100284.22
2023-01-07T01:49:54.146Z,100282.47
2023-01-07T01:52:27.496Z,100290.31
2023-01-07T01:55:01.036Z,100279.84
2023-01-07T01:57:32.871Z,100282.47
2023-01-07T02:00:03.183Z,100289.50
2023-01-07T02:02:46.674Z,100287.72
2023-01-07T02:05:17.039Z,100279.03
2023-01-07T02:07:45.833Z,100278.13
2023-01-07T02:10:17.763Z,100279.84
2023-01-07T02:13:05.624Z,100273.81
2023-01-07T02:15:44.951Z,100276.38
2023-01-07T02:18:29.230Z,100275.47
2023-01-07T02:21:18.852Z,100271.94
2023-01-07T02:24:20.803Z,100265.84
2023-01-07T02:27:12.039Z,100268.44
2023-01-07T02:30:20.774Z,100270.19
2023-01-07T02:33:04.620Z,100264.06
2023-01-07T02:35:46.318Z,100265.81
2023-01-07T02:38:25.213Z,100266.69
2023-01-07T02:41:02.911Z,100262.31
2023-01-07T02:43:43.189Z,100264.94
2023-01-07T02:46:20.660Z,100260.56
2023-01-07T02:48:51.591Z,100254.47
2023-01-07T02:51:20.266Z,100256.22
2023-01-07T02:53:50.099Z,100259.69
2023-01-07T02:56:29.198Z,100254.47
2023-01-07T02:59:37.010Z,100252.66
2023-01-07T03:02:25.893Z,100257.91
2023-01-07T03:08:49.126Z,100253.53
2023-01-07T03:16:06.651Z,100239.59
2023-01-07T03:18:40.088Z,100242.19
2023-01-07T03:21:13.601Z,100233.47
2023-01-07T03:23:48.868Z,100234.31
2023-01-07T03:26:23.277Z,100228.19
2023-01-07T03:28:53.046Z,100227.28
2023-01-07T03:31:23.395Z,100228.09
2023-01-07T03:33:56.568Z,100221.97
2023-01-07T03:36:29.457Z,100225.41
2023-01-07T03:39:00.850Z,100217.53
2023-01-07T03:41:47.072Z,100218.34
2023-01-07T03:44:15.609Z,100223.50
2023-01-07T03:46:44.925Z,100218.19
2023-01-07T03:49:14.157Z,100211.16
2023-01-07T03:51:42.966Z,100213.69
2023-01-07T03:54:12.729Z,100199.59
2023-01-07T03:56:41.139Z,100204.72
2023-01-07T03:59:09.562Z,100202.03
2023-01-07T04:01:38.141Z,100199.34
2023-01-07T04:04:06.765Z,100197.53
2023-01-07T04:06:36.547Z,100193.97
2023-01-07T04:09:05.035Z,100195.69
2023-01-07T04:11:36.209Z,100191.28
2023-01-07T04:14:04.537Z,100196.47
2023-01-07T04:16:33.492Z,100181.59
2023-01-07T04:19:02.376Z,100178.91
2023-01-07T04:21:30.967Z,100182.34
2023-01-07T04:23:59.297Z,100186.69
2023-01-07T04:26:27.755Z,100179.72
2023-01-07T04:28:57.563Z,100176.22
2023-01-07T04:31:26.524Z,100173.53
2023-01-07T04:33:54.923Z,100169.16
2023-01-07T04:36:23.942Z,100167.38
2023-01-07T04:38:52.284Z,100163.81
2023-01-07T04:41:21.021Z,100163.81
2023-01-07T04:43:49.533Z,100165.59
2023-01-07T04:46:19.210Z,100160.38
2023-01-07T04:48:47.713Z,100149.03
2023-01-07T04:51:16.495Z,100147.31
2023-01-07T04:53:44.772Z,100136.00
2023-01-07T04:56:13.762Z,100140.34
2023-01-07T04:58:43.790Z,100136.84
2023-01-07T05:01:12.459Z,100137.78
2023-01-07T05:03:42.882Z,100130.75
2023-01-07T05:06:11.459Z,100132.50
2023-01-07T05:08:40.548Z,100133.38
2023-01-07T05:11:09.356Z,100139.47
2023-01-07T05:13:41.011Z,100132.50
2023-01-07T05:16:09.576Z,100123.78
2023-01-07T05:18:37.978Z,100121.97
2023-01-07T05:21:10.441Z,100121.97
2023-01-07T05:23:39.628Z,100112.38
2023-01-07T05:26:08.440Z,100113.22
2023-01-07T05:28:37.169Z,100108.81
2023-01-07T05:31:06.152Z,100111.34
2023-01-07T05:33:35.283Z,100099.13
2023-01-07T05:36:04.515Z,100101.69
2023-01-07T05:38:35.080Z,100109.47
2023-01-07T05:41:03.559Z,100099.88
2023-01-07T05:43:32.189Z,100101.63
2023-01-07T05:46:00.690Z,100099.81
2023-01-07T05:48:29.054Z,100100.69
2023-01-07T05:50:57.410Z,100093.72
2023-01-07T05:53:25.775Z,100095.47
2023-01-07T05:55:58.732Z,100095.47
2023-01-07T05:58:27.761Z,100095.47
2023-01-07T06:00:56.513Z,100088.53
2023-01-07T06:03:24.937Z,100094.66
2023-01-07T06:05:53.339Z,100088.56
2023-01-07T06:08:21.658Z,100091.25
2023-01-07T06:10:50.039Z,100089.50
2023-01-07T06:13:19.763Z,100081.66
2023-01-07T06:15:48.152Z,100086.00
2023-01-07T06:18:16.641Z,100084.34
2023-01-07T06:20:44.976Z,100074.75
2023-01-07T06:23:13.268Z,100080.91
2023-01-07T06:25:41.592Z,100080.91
2023-01-07T06:28:09.984Z,100082.72
2023-01-07T06:30:39.677Z,100076.66
2023-01-07T06:33:08.158Z,100075.81
2023-01-07T06:35:36.472Z,100077.59
2023-01-07T06:38:04.842Z,100072.34
2023-01-07T06:40:33.551Z,100070.63
2023-01-07T06:43:01.917Z,100069.81
2023-01-07T06:45:30.243Z,100065.44
2023-01-07T06:47:59.904Z,100065.44
2023-01-07T06:50:28.334Z,100066.34
2023-01-07T06:52:56.822Z,100062.84
2023-01-07T06:55:25.236Z,100058.47
2023-01-07T06:57:53.621Z,100057.63
2023-01-07T07:00:22.279Z,100048.97
2023-01-07T07:02:50.682Z,100042.84
2023-01-07T07:05:20.428Z,100042.84
2023-01-07T07:07:48.752Z,100047.22
2023-01-07T07:10:17.403Z,100041.13
2023-01-07T07:12:45.718Z,100028.91
2023-01-07T07:15:14.069Z,100035.91
2023-01-07T07:17:42.444Z,100032.41
2023-01-07T07:20:12.196Z,100032.47
2023-01-07T07:22:46.911Z,100030.69
2023-01-07T07:25:16.209Z,100031.59
2023-01-07T07:27:46.991Z,100033.34
2023-01-07T07:30:16.135Z,100031.59
2023-01-07T07:32:44.804Z,100040.38
2023-01-07T07:35:13.967Z,100029.91
2023-01-07T07:37:42.299Z,100026.44
2023-01-07T07:40:13.035Z,100028.19
2023-01-07T07:43:10.724Z,100028.19
2023-01-07T07:45:29.703Z,100023.88
2023-01-07T07:47:58.069Z,100019.53
2023-01-07T07:50:26.456Z,100016.94
2023-01-07T07:52:56.186Z,100011.69
2023-01-07T07:55:26.520Z,100008.22
2023-01-07T07:57:55.574Z,100006.53
2023-01-07T08:00:24.293Z,100010.03
2023-01-07T08:02:52.643Z,100007.47
2023-01-07T08:05:20.974Z,100003.97
2023-01-07T08:07:49.310Z,99998.75
2023-01-07T08:10:17.715Z,99998.75
2023-01-07T08:12:47.791Z,99990.09
2023-01-07T08:15:16.517Z,100005.78
2023-01-07T08:17:44.909Z,100001.41
2023-01-07T08:20:14.044Z,100003.19
2023-01-07T08:22:43.536Z,100000.63
2023-01-07T08:25:11.874Z,99988.38
2023-01-07T08:27:40.248Z,99991.91
2023-01-07T08:30:11.734Z,99981.44
2023-01-07T08:32:40.020Z,99994.53
2023-01-07T08:35:09.260Z,99993.69
2023-01-07T08:37:37.563Z,99999.81
2023-01-07T08:40:07.260Z,100003.31
2023-01-07T08:42:35.590Z,99990.22
2023-01-07T08:45:04.308Z,99990.22
2023-01-07T08:47:34.024Z,99985.00
2023-01-07T08:50:02.405Z,99979.75
2023-01-07T08:52:31.231Z,99973.66
2023-01-07T08:54:59.602Z,99963.19
2023-01-07T08:57:27.956Z,99963.19
2023-01-07T08:59:56.262Z,99960.59
2023-01-07T09:02:25.108Z,99965.81
2023-01-07T09:04:54.827Z,99962.38
2023-01-07T09:07:23.164Z,99967.69
2023-01-07T09:09:51.540Z,99966.84
2023-01-07T09:12:19.897Z,99966.91
2023-01-07T09:14:48.198Z,99963.41
2023-01-07T09:17:16.658Z,99956.44
2023-01-07T09:19:44.955Z,99946.88
2023-01-07T09:22:17.181Z,99953.88
2023-01-07T09:24:47.858Z,99951.28
2023-01-07T09:27:17.164Z,99950.41
2023-01-07T09:29:45.539Z,99947.78
2023-01-07T09:32:13.866Z,99948.66
2023-01-07T09:34:42.192Z,99950.47
2023-01-07T09:37:10.725Z,99945.22
2023-01-07T09:39:40.480Z,99941.75
2023-01-07T09:42:20.558Z,99941.81
2023-01-07T09:45:04.397Z,99933.97
2023-01-07T09:47:37.098Z,99931.41
2023-01-07T09:50:15.671Z,99930.59
2023-01-07T09:52:49.931Z,99926.28
2023-01-07T09:55:23.925Z,99919.38
2023-01-07T09:57:52.693Z,99912.47
2023-01-07T10:00:24.460Z,99905.53
2023-01-07T10:03:09.871Z,99911.69
2023-01-07T10:05:48.530Z,99910.00
2023-01-07T10:08:29.162Z,99911.81
2023-01-07T10:11:12.872Z,99907.41
2023-01-07T10:14:03.866Z,99898.75
2023-01-07T10:16:42.495Z,99890.06
2023-01-07T10:19:19.901Z,99890.13
2023-01-07T10:21:54.863Z,99888.44
2023-01-07T10:24:28.017Z,99876.31
2023-01-07T10:27:00.953Z,99873.81
2023-01-07T10:29:35.942Z,99871.28
2023-01-07T10:32:09.306Z,99871.38
2023-01-07T10:34:44.872Z,99859.25
2023-01-07T10:37:23.697Z,99847.09
2023-01-07T10:40:04.690Z,99850.69
2023-01-07T10:42:39.156Z,99849.00
2023-01-07T10:45:32.877Z,99846.41
2023-01-07T10:48:21.847Z,99839.50
2023-01-07T10:51:08.805Z,99831.69
2023-01-07T10:53:50.333Z,99819.50
2023-01-07T10:56:24.782Z,99816.03
2023-01-07T10:58:54.468Z,99806.38
2023-01-07T11:01:26.866Z,99804.66
2023-01-07T11:03:57.119Z,99791.59
2023-01-07T11:06:35.580Z,99783.72
2023-01-07T11:09:07.497Z,99778.47
2023-01-07T11:11:37.701Z,99784.63
2023-01-07T11:14:21.601Z,99772.47
2023-01-07T11:16:55.385Z,99763.75
2023-01-07T11:19:43.013Z,99762.91
2023-01-07T11:22:30.622Z,99759.47
2023-01-07T11:25:00.215Z,99762.03
2023-01-07T11:27:31.709Z,99747.19
2023-01-07T11:30:04.910Z,99739.31
2023-01-07T11:32:36.263Z,99741.94
2023-01-07T11:35:07.392Z,99737.63
2023-01-07T11:37:39.205Z,99726.31
2023-01-07T11:40:23.536Z,99721.09
2023-01-07T11:42:55.215Z,99716.72
2023-01-07T11:45:26.777Z,99711.47
2023-01-07T11:48:02.379Z,99713.22
2023-01-07T11:50:39.272Z,99699.28
2023-01-07T11:53:29.013Z,99701.06
2023-01-07T11:56:02.942Z,99693.19
2023-01-07T11:58:33.867Z,99690.56
2023-01-07T12:01:21.540Z,99683.63
2023-01-07T12:04:13.922Z,99674.88
2023-01-07T12:06:46.857Z,99677.59
2023-01-07T12:09:27.217Z,99665.34
2023-01-07T12:11:58.794Z,99661.88
2023-01-07T12:14:31.511Z,99667.97
2023-01-07T12:17:15.458Z,99657.50
2023-01-07T12:20:11.506Z,99650.53
2023-01-07T12:23:22.753Z,99647.94
2023-01-07T12:26:10.192Z,99636.63
2023-01-07T12:28:53.677Z,99633.16
2023-01-07T12:31:33.084Z,99628.78
2023-01-07T12:34:08.879Z,99613.97
2023-01-07T12:36:45.408Z,99615.69
2023-01-07T12:39:20.051Z,99590.31
2023-01-07T12:41:55.400Z,99585.09
2023-01-07T12:44:24.104Z,99601.69
2023-01-07T12:47:30.445Z,99595.56
2023-01-07T12:50:01.591Z,99586.81
2023-01-07T12:52:41.579Z,99576.34
2023-01-07T12:55:18.766Z,99583.38
2023-01-07T12:58:00.101Z,99580.75
2023-01-07T13:00:32.974Z,99568.53
2023-01-07T13:03:11.608Z,99580.75
2023-01-07T13:05:49.549Z,99565.03
2023-01-07T13:08:26.565Z,99560.66
2023-01-07T13:11:00.216Z,99557.16
2023-01-07T13:13:33.031Z,99547.53
2023-01-07T13:16:01.739Z,99547.53
2023-01-07T13:18:30.679Z,99547.53
2023-01-07T13:21:07.798Z,99542.31
2023-01-07T13:24:00.120Z,99551.09
2023-01-07T13:26:38.598Z,99539.72
2023-01-07T13:29:21.311Z,99535.38
2023-01-07T13:32:16.400Z,99535.28
2023-01-07T13:34:57.001Z,99516.06
2023-01-07T13:37:47.729Z,99522.19
2023-01-07T13:40:33.137Z,99530.06
2023-01-07T13:43:10.656Z,99519.56
2023-01-07T13:45:41.615Z,99531.81
2023-01-07T13:48:22.891Z,99536.16
2023-01-07T13:50:59.307Z,99523.06
2023-01-07T13:53:46.215Z,99530.94
2023-01-07T13:56:33.968Z,99528.28
2023-01-07T13:59:02.957Z,99507.31
2023-01-07T14:01:33.591Z,99512.56
2023-01-07T14:04:35.364Z,99499.44
2023-01-07T14:07:04.129Z,99499.44
2023-01-07T14:09:39.641Z,99499.41
2023-01-07T14:12:43.862Z,99491.56
2023-01-07T14:15:39.381Z,99493.34
2023-01-07T14:18:47.653Z,99474.16
2023-01-07T14:21:23.833Z,99475.84
2023-01-07T14:24:04.782Z,99476.72
2023-01-07T14:26:41.829Z,99460.13
2023-01-07T14:29:41.044Z,99468.81
2023-01-07T14:32:26.896Z,99478.41
2023-01-07T14:34:58.307Z,99465.28
2023-01-07T14:37:38.264Z,99461.75
2023-01-07T14:40:43.926Z,99471.34
2023-01-07T14:43:45.529Z,99459.09
2023-01-07T14:46:52.504Z,99462.56
2023-01-07T14:50:08.175Z,99459.00
2023-01-07T14:53:16.201Z,99457.25
2023-01-07T14:56:04.542Z,99452.91
2023-01-07T14:58:43.270Z,99450.25
2023-01-07T15:01:34.919Z,99448.47
2023-01-07T15:04:33.246Z,99438.81
2023-01-07T15:07:05.227Z,99441.38
2023-01-07T15:09:58.003Z,99438.72
2023-01-07T15:12:47.735Z,99436.94
2023-01-07T15:15:39.262Z,99436.00
2023-01-07T15:18:09.084Z,99444.69
2023-01-07T15:20:50.786Z,99441.16
2023-01-07T15:23:27.822Z,99451.56
2023-01-07T15:26:04.996Z,99445.41
2023-01-07T15:28:42.148Z,99446.22
2023-01-07T15:31:19.505Z,99440.94
2023-01-07T15:34:02.386Z,99447.00
2023-01-07T15:36:31.966Z,99444.31
2023-01-07T15:39:04.612Z,99434.72
2023-01-07T15:41:35.389Z,99427.66
2023-01-07T15:44:06.544Z,99422.38
2023-01-07T15:46:40.712Z,99419.72
2023-01-07T15:49:17.600Z,99410.94
2023-01-07T15:51:48.919Z,99416.16
2023-01-07T15:54:30.360Z,99406.50
2023-01-07T15:57:07.981Z,99399.44
2023-01-07T15:59:39.938Z,99394.16
2023-01-07T16:02:23.155Z,99382.78
2023-01-07T16:04:53.767Z,99387.97
2023-01-07T16:07:27.521Z,99385.31
2023-01-07T16:09:58.758Z,99387.91
2023-01-07T16:12:33.217Z,99386.91
2023-01-07T16:15:04.037Z,99377.25
2023-01-07T16:17:33.424Z,99381.56
2023-01-07T16:20:13.554Z,99382.44
2023-01-07T16:22:43.321Z,99377.16
2023-01-07T16:25:22.927Z,99378.81
2023-01-07T16:27:51.881Z,99380.56
2023-01-07T16:30:20.818Z,99380.53
2023-01-07T16:32:49.790Z,99377.84
2023-01-07T16:35:21.423Z,99375.22
2023-01-07T16:37:50.858Z,99370.84
2023-01-07T16:40:25.681Z,99362.97
2023-01-07T16:42:54.505Z,99362.03
2023-01-07T16:45:29.538Z,99354.16
2023-01-07T16:48:03.570Z,99357.59
2023-01-07T16:50:38.553Z,99352.34
2023-01-07T16:53:22.947Z,99361.91
2023-01-07T16:55:55.139Z,99351.41
2023-01-07T16:58:30.394Z,99356.66
2023-01-07T17:01:02.036Z,99345.31
2023-01-07T17:03:35.642Z,99351.41
2023-01-07T17:06:07.524Z,99347.91
2023-01-07T17:08:37.194Z,99345.28
2023-01-07T17:11:20.185Z,99351.38
2023-01-07T17:13:49.060Z,99343.53
2023-01-07T17:16:29.940Z,99337.41
2023-01-07T17:19:00.880Z,99353.06
2023-01-07T17:21:41.569Z,99355.69
2023-01-07T17:24:39.345Z,99344.31
2023-01-07T17:27:21.255Z,99351.28
2023-01-07T17:29:50.175Z,99352.97
2023-01-07T17:32:19.163Z,99349.50
2023-01-07T17:34:50.350Z,99352.09
2023-01-07T17:37:19.125Z,99354.72
2023-01-07T17:39:50.410Z,99347.75
2023-01-07T17:42:41.611Z,99345.09
2023-01-07T17:45:15.803Z,99349.47
2023-01-07T17:47:44.532Z,99352.09
2023-01-07T17:50:14.804Z,99351.19
2023-01-07T17:52:45.765Z,99339.06
2023-01-07T17:55:16.859Z,99349.50
2023-01-07T17:57:54.537Z,99335.59
2023-01-07T18:00:25.594Z,99342.56
2023-01-07T18:02:58.542Z,99349.56
2023-01-07T18:05:27.615Z,99335.66
2023-01-07T18:07:56.568Z,99330.41
2023-01-07T18:10:29.491Z,99321.72
2023-01-07T18:12:59.160Z,99322.59
2023-01-07T18:15:28.539Z,99325.25
2023-01-07T18:17:57.074Z,99314.81
2023-01-07T18:20:25.581Z,99319.19
2023-01-07T18:22:54.021Z,99308.72
2023-01-07T18:25:23.692Z,99293.09
2023-01-07T18:27:53.515Z,99296.59
2023-01-07T18:30:24.284Z,99290.50
2023-01-07T18:32:53.661Z,99294.00
2023-01-07T18:35:22.693Z,99300.97
2023-01-07T18:37:54.330Z,99280.06
2023-01-07T18:40:23.042Z,99264.41
2023-01-07T18:42:53.472Z,99265.28
2023-01-07T18:45:23.702Z,99276.66
2023-01-07T18:47:52.166Z,99250.50
2023-01-07T18:50:22.761Z,99250.53
2023-01-07T18:52:51.191Z,99254.91
2023-01-07T18:55:21.052Z,99254.91
2023-01-07T18:57:49.434Z,99255.78
2023-01-07T19:00:18.429Z,99264.53
2023-01-07T19:02:51.099Z,99246.22
2023-01-07T19:05:19.571Z,99250.56
2023-01-07T19:07:47.947Z,99242.72
2023-01-07T19:10:16.426Z,99267.97
2023-01-07T19:12:47.844Z,99261.00
2023-01-07T19:15:16.364Z,99256.66
2023-01-07T19:17:44.902Z,99245.34
2023-01-07T19:20:16.357Z,99240.16
2023-01-07T19:22:44.821Z,99248.88
2023-01-07T19:25:14.627Z,99252.41
2023-01-07T19:27:42.978Z,99257.66
2023-01-07T19:30:12.595Z,99252.44
2023-01-07T19:32:41.031Z,99244.63
2023-01-07T19:35:10.099Z,99235.03
2023-01-07T19:37:40.163Z,99212.38
2023-01-07T19:40:09.929Z,99223.72
2023-01-07T19:42:38.357Z,99231.56
2023-01-07T19:45:08.090Z,99231.56
2023-01-07T19:47:36.562Z,99243.78
2023-01-07T19:50:05.453Z,99238.59
2023-01-07T19:52:33.932Z,99228.16
2023-01-07T19:55:03.727Z,99235.13
2023-01-07T19:57:32.183Z,99236.03
2023-01-07T20:00:00.643Z,99229.06
2023-01-07T20:02:29.166Z,99218.63
2023-01-07T20:04:57.621Z,99235.22
2023-01-07T20:07:26.068Z,99228.25
2023-01-07T20:09:54.512Z,99230.91
2023-01-07T20:12:24.301Z,99230.09
2023-01-07T20:14:52.988Z,99230.09
2023-01-07T20:17:21.407Z,99235.31
2023-01-07T20:19:49.816Z,99232.75
2023-01-07T20:22:18.245Z,99230.13
2023-01-07T20:24:46.773Z,99231.91
2023-01-07T20:27:15.143Z,99231.03
2023-01-07T20:29:45.448Z,99230.13
2023-01-07T20:32:14.019Z,99244.97
2023-01-07T20:34:42.731Z,99237.13
2023-01-07T20:37:11.292Z,99242.38
2023-01-07T20:39:39.827Z,99244.94
2023-01-07T20:42:08.363Z,99232.72
2023-01-07T20:44:36.860Z,99240.50
2023-01-07T20:47:06.752Z,99239.59
2023-01-07T20:49:35.172Z,99233.41
2023-01-07T20:52:03.603Z,99235.94
2023-01-07T20:54:32.062Z,99222.78
2023-01-07T20:57:00.408Z,99224.44
2023-01-07T20:59:28.821Z,99215.66
2023-01-07T21:01:57.480Z,99208.63
2023-01-07T21:04:29.037Z,99216.41
2023-01-07T21:06:57.509Z,99219.00
2023-01-07T21:09:26.006Z,99210.19
2023-01-07T21:11:54.386Z,99214.53
2023-01-07T21:14:22.705Z,99207.50
2023-01-07T21:16:51.247Z,99204.88
2023-01-07T21:19:20.257Z,99201.38
2023-01-07T21:21:50.633Z,99208.31
2023-01-07T21:24:19.159Z,99203.09
2023-01-07T21:26:48.473Z,99207.41
2023-01-07T21:29:17.058Z,99204.78
2023-01-07T21:31:46.109Z,99211.72
2023-01-07T21:34:15.414Z,99204.75
2023-01-07T21:36:43.859Z,99191.69
2023-01-07T21:39:14.233Z,99198.66
2023-01-07T21:41:42.670Z,99196.03
2023-01-07T21:44:12.628Z,99196.91
2023-01-07T21:46:41.148Z,99193.47
2023-01-07T21:49:09.555Z,99204.78
2023-01-07T21:51:37.911Z,99202.16
2023-01-07T21:54:06.449Z,99196.97
2023-01-07T21:56:36.237Z,99199.59
2023-01-07T21:59:04.605Z,99194.38
2023-01-07T22:01:36.327Z,99196.16
2023-01-07T22:04:05.177Z,99200.47
2023-01-07T22:06:35.609Z,99197.00
2023-01-07T22:09:06.754Z,99197.84
2023-01-07T22:11:38.660Z,99185.69
2023-01-07T22:14:07.042Z,99183.09
2023-01-07T22:16:35.451Z,99181.34
2023-01-07T22:19:05.009Z,99189.22
2023-01-07T22:21:34.024Z,99190.13
2023-01-07T22:24:02.539Z,99180.56
2023-01-07T22:26:31.022Z,99193.66
2023-01-07T22:29:03.489Z,99194.59
2023-01-07T22:31:34.136Z,99195.50
2023-01-07T22:34:03.048Z,99200.78
2023-01-07T22:36:37.628Z,99198.22
2023-01-07T22:39:07.229Z,99205.25
2023-01-07T22:41:36.257Z,99203.53
2023-01-07T22:44:10.209Z,99182.66
2023-01-07T22:46:40.354Z,99187.94
2023-01-07T22:49:08.841Z,99180.13
2023-01-07T22:51:41.334Z,99181.03
2023-01-07T22:54:10.073Z,99183.69
2023-01-07T22:56:38.866Z,99189.81
2023-01-07T22:59:08.658Z,99191.59
2023-01-07T23:01:37.820Z,99189.00
2023-01-07T23:04:06.753Z,99178.56
2023-01-07T23:06:35.238Z,99176.84
2023-01-07T23:09:04.099Z,99174.25
2023-01-07T23:11:51.834Z,99162.97
2023-01-07T23:14:23.707Z,99169.09
2023-01-07T23:16:53.166Z,99164.75
2023-01-07T23:19:23.264Z,99156.03
2023-01-07T23:21:53.413Z,99158.63
2023-01-07T23:24:22.871Z,99163.00
2023-01-07T23:26:52.903Z,99145.56
2023-01-07T23:29:23.346Z,99148.19
2023-01-07T23:31:51.876Z,99149.91
2023-01-07T23:34:20.606Z,99147.31
2023-01-07T23:36:49.002Z,99139.47
2023-01-07T23:39:20.246Z,99146.44
2023-01-07T23:41:48.833Z,99149.91
2023-01-07T23:44:17.396Z,99153.44
2023-01-07T23:46:47.183Z,99152.56
2023-01-07T23:49:15.743Z,99163.03
2023-01-07T23:51:44.151Z,99147.34
2023-01-07T23:54:12.708Z,99148.19
2023-01-07T23:56:41.206Z,99151.72
2023-01-07T23:59:10.372Z,99156.09
